createdAt,value
2022-08-19T00:03:41.037Z,19.47
2022-08-19T00:08:26.233Z,20.83
2022-08-19T00:13:11.012Z,22.53
2022-08-19T00:17:56.710Z,21.50
2022-08-19T00:22:50.750Z,23.07
2022-08-19T00:27:34.259Z,23.60
2022-08-19T00:32:17.913Z,20.03
2022-08-19T00:37:04.191Z,21.70
2022-08-19T00:41:52.665Z,21.10
2022-08-19T00:46:38.577Z,22.23
2022-08-19T00:51:23.213Z,21.87
2022-08-19T00:56:09.467Z,24.57
2022-08-19T01:00:52.984Z,23.70
2022-08-19T01:05:38.673Z,21.83
2022-08-19T01:10:27.113Z,22.43
2022-08-19T01:15:14.473Z,22.20
2022-08-19T01:19:58.438Z,23.60
2022-08-19T01:24:46.744Z,22.33
2022-08-19T01:29:33.622Z,23.87
2022-08-19T01:34:17.377Z,23.17
2022-08-19T01:39:02.465Z,23.03
2022-08-19T01:44:03.257Z,23.63
2022-08-19T01:48:51.327Z,23.67
2022-08-19T01:53:35.622Z,21.40
2022-08-19T01:58:22.828Z,22.20
2022-08-19T02:03:07.735Z,20.53
2022-08-19T02:07:51.821Z,21.27
2022-08-19T02:12:36.713Z,22.23
2022-08-19T02:17:21.671Z,21.97
2022-08-19T02:22:06.964Z,22.03
2022-08-19T02:26:50.597Z,21.53
2022-08-19T02:31:34.469Z,21.13
2022-08-19T02:36:20.797Z,23.07
2022-08-19T02:41:13.496Z,20.87
2022-08-19T02:45:57.334Z,21.33
2022-08-19T02:50:41.424Z,20.67
2022-08-19T02:55:46.021Z,21.47
2022-08-19T03:00:31.460Z,19.30
2022-08-19T03:05:17.552Z,21.57
2022-08-19T03:10:01.329Z,22.13
2022-08-19T03:14:47.844Z,24.20
2022-08-19T03:19:33.514Z,21.83
2022-08-19T03:24:18.276Z,22.43
2022-08-19T03:29:05.630Z,24.27
2022-08-19T03:33:50.593Z,22.03
2022-08-19T03:38:36.607Z,23.53
2022-08-19T03:43:20.140Z,22.43
2022-08-19T03:48:03.987Z,20.97
2022-08-19T03:52:51.483Z,22.03
2022-08-19T03:57:36.815Z,21.33
2022-08-19T04:02:20.504Z,20.20
2022-08-19T04:07:04.681Z,20.80
2022-08-19T04:11:52.197Z,19.83
2022-08-19T04:16:37.710Z,21.63
2022-08-19T04:21:24.028Z,22.20
2022-08-19T04:26:09.362Z,21.57
2022-08-19T04:30:59.115Z,22.43
2022-08-19T04:35:46.701Z,21.17
2022-08-19T04:40:47.602Z,21.30
2022-08-19T04:45:39.513Z,22.30
2022-08-19T04:50:28.593Z,22.83
2022-08-19T04:55:15.292Z,23.23
2022-08-19T04:59:59.792Z,23.23
2022-08-19T05:04:43.569Z,21.80
2022-08-19T05:09:27.303Z,22.80
2022-08-19T05:14:14.628Z,22.67
2022-08-19T05:19:16.130Z,23.13
2022-08-19T05:24:00.011Z,24.53
2022-08-19T05:28:43.754Z,21.50
2022-08-19T05:33:28.873Z,23.67
2022-08-19T05:38:13.789Z,22.37
2022-08-19T05:42:57.605Z,19.90
2022-08-19T05:47:42.321Z,20.80
2022-08-19T05:52:29.201Z,18.27
2022-08-19T05:57:14.498Z,15.37
2022-08-19T06:01:58.578Z,15.30
2022-08-19T06:06:42.732Z,13.83
2022-08-19T06:11:37.617Z,13.77
2022-08-19T06:16:23.404Z,12.83
2022-08-19T06:21:07.415Z,14.37
2022-08-19T06:25:51.125Z,14.43
2022-08-19T06:30:36.202Z,15.87
2022-08-19T06:35:19.970Z,13.40
2022-08-19T06:40:03.768Z,14.27
2022-08-19T06:44:50.110Z,13.87
2022-08-19T06:49:38.992Z,13.80
2022-08-19T06:54:23.649Z,16.60
2022-08-19T06:59:09.781Z,17.07
2022-08-19T07:03:53.504Z,18.60
2022-08-19T07:08:42.211Z,20.57
2022-08-19T07:13:27.799Z,20.97
2022-08-19T07:18:12.098Z,20.13
2022-08-19T07:22:56.193Z,19.50
2022-08-19T07:27:41.585Z,20.43
2022-08-19T07:32:31.809Z,19.63
2022-08-19T07:37:16.917Z,19.70
2022-08-19T07:42:03.316Z,19.83
2022-08-19T07:46:53.298Z,21.80
2022-08-19T07:51:37.647Z,21.77
2022-08-19T07:56:22.547Z,20.13
2022-08-19T08:01:08.957Z,20.40
2022-08-19T08:06:11.365Z,19.77
2022-08-19T08:10:57.637Z,19.50
2022-08-19T08:15:42.867Z,19.77
2022-08-19T08:20:27.935Z,19.53
2022-08-19T08:25:16.307Z,20.30
2022-08-19T08:30:02.794Z,18.53
2022-08-19T08:34:51.787Z,16.73
2022-08-19T08:39:37.065Z,15.70
2022-08-19T08:44:26.077Z,14.80
2022-08-19T08:49:22.593Z,14.37
2022-08-19T08:54:10.637Z,15.57
2022-08-19T08:59:00.899Z,14.83
2022-08-19T09:03:49.063Z,16.83
2022-08-19T09:08:44.199Z,15.87
2022-08-19T09:13:39.149Z,15.97
2022-08-19T09:18:23.054Z,16.87
2022-08-19T09:23:09.350Z,15.60
2022-08-19T09:28:02.399Z,17.30
2022-08-19T09:32:47.769Z,15.40
2022-08-19T09:37:37.815Z,15.53
2022-08-19T09:42:30.008Z,17.20
2022-08-19T09:47:16.525Z,15.57
2022-08-19T09:52:05.626Z,15.07
2022-08-19T09:56:50.653Z,12.80
2022-08-19T10:07:39.987Z,11.80
2022-08-19T10:12:23.657Z,10.17
2022-08-19T10:17:19.138Z,10.57
2022-08-19T10:22:10.077Z,10.53
2022-08-19T10:26:59.601Z,7.68
2022-08-19T10:32:01.275Z,7.18
2022-08-19T10:36:56.105Z,6.47
2022-08-19T10:41:44.294Z,5.57
2022-08-19T10:46:33.710Z,5.60
2022-08-19T10:51:35.575Z,4.25
2022-08-19T10:56:36.945Z,6.03
2022-08-19T11:01:21.554Z,6.80
2022-08-19T11:06:09.812Z,6.90
2022-08-19T11:10:56.614Z,6.32
2022-08-19T11:15:40.515Z,7.90
2022-08-19T11:20:25.470Z,8.57
2022-08-19T11:25:12.924Z,10.27
2022-08-19T11:29:56.680Z,12.25
2022-08-19T11:34:40.756Z,12.63
2022-08-19T11:39:24.910Z,12.18
2022-08-19T11:44:10.398Z,13.50
2022-08-19T11:48:55.471Z,13.63
2022-08-19T11:53:40.598Z,13.20
2022-08-19T11:58:25.865Z,13.98
2022-08-19T12:03:14.616Z,16.73
2022-08-19T12:07:58.491Z,17.45
2022-08-19T12:12:43.894Z,19.23
2022-08-19T12:17:31.972Z,21.10
2022-08-19T12:22:17.417Z,21.15
2022-08-19T12:27:03.221Z,21.23
2022-08-19T12:31:46.958Z,21.77
2022-08-19T12:36:30.940Z,19.63
2022-08-19T12:41:19.384Z,21.17
2022-08-19T12:46:03.674Z,21.67
2022-08-19T12:50:48.232Z,23.90
2022-08-19T12:55:31.868Z,24.25
2022-08-19T13:00:22.090Z,20.88
2022-08-19T13:05:07.751Z,20.93
2022-08-19T13:09:58.160Z,20.50
2022-08-19T13:14:43.163Z,23.17
2022-08-19T13:19:28.170Z,21.93
2022-08-19T13:24:11.888Z,21.50
2022-08-19T13:29:12.918Z,24.97
2022-08-19T13:33:56.801Z,23.93
2022-08-19T13:38:41.850Z,26.53
2022-08-19T13:43:28.608Z,30.40
2022-08-19T13:48:12.581Z,36.47
2022-08-19T13:52:57.267Z,35.57
2022-08-19T13:57:43.355Z,34.30
2022-08-19T14:02:27.192Z,30.60
2022-08-19T14:07:11.682Z,31.63
2022-08-19T14:11:56.047Z,32.43
2022-08-19T14:16:41.047Z,31.77
2022-08-19T14:21:39.722Z,31.00
2022-08-19T14:26:26.028Z,32.13
2022-08-19T14:31:10.830Z,29.63
2022-08-19T14:35:59.674Z,31.63
2022-08-19T14:40:43.846Z,33.73
2022-08-19T14:45:27.866Z,33.60
2022-08-19T14:50:18.099Z,36.63
2022-08-19T14:55:07.481Z,32.70
2022-08-19T14:59:51.676Z,28.73
2022-08-19T15:04:35.376Z,30.70
2022-08-19T15:09:19.024Z,31.00
2022-08-19T15:14:04.201Z,29.07
2022-08-19T15:18:51.015Z,27.57
2022-08-19T15:23:34.740Z,27.13
2022-08-19T15:28:18.743Z,27.10
2022-08-19T15:33:04.219Z,27.47
2022-08-19T15:37:50.279Z,24.67
2022-08-19T15:42:34.111Z,24.30
2022-08-19T15:47:20.271Z,24.20
2022-08-19T15:52:07.733Z,24.23
2022-08-19T15:57:09.519Z,25.30
2022-08-19T16:02:11.131Z,22.50
2022-08-19T16:06:58.437Z,22.00
2022-08-19T16:11:45.983Z,23.20
2022-08-19T16:16:34.008Z,23.67
2022-08-19T16:21:18.186Z,25.30
2022-08-19T16:26:02.260Z,24.13
2022-08-19T16:30:51.127Z,23.43
2022-08-19T16:35:35.131Z,24.13
2022-08-19T16:40:19.263Z,22.50
2022-08-19T16:45:03.809Z,21.40
2022-08-19T16:49:53.465Z,23.03
2022-08-19T16:54:39.908Z,20.53
2022-08-19T16:59:25.160Z,24.23
2022-08-19T17:04:31.803Z,23.97
2022-08-19T17:09:18.585Z,23.57
2022-08-19T17:14:10.165Z,21.73
2022-08-19T17:18:54.672Z,20.13
2022-08-19T17:23:42.646Z,23.03
2022-08-19T17:28:32.456Z,22.10
2022-08-19T17:33:16.875Z,22.73
2022-08-19T17:38:04.682Z,22.70
2022-08-19T17:42:48.509Z,22.57
2022-08-19T17:47:33.653Z,22.93
2022-08-19T17:52:17.275Z,24.00
2022-08-19T17:57:01.543Z,24.47
2022-08-19T18:01:53.248Z,25.17
2022-08-19T18:06:39.413Z,23.53
2022-08-19T18:11:23.117Z,22.60
2022-08-19T18:16:12.289Z,24.67
2022-08-19T18:20:56.448Z,23.23
2022-08-19T18:25:44.807Z,23.23
2022-08-19T18:30:33.527Z,24.57
2022-08-19T18:35:20.722Z,24.00
2022-08-19T18:40:22.944Z,21.90
2022-08-19T18:45:26.439Z,26.27
2022-08-19T18:50:12.968Z,27.03
2022-08-19T18:54:59.513Z,30.43
2022-08-19T18:59:43.571Z,30.20
2022-08-19T19:04:32.323Z,31.47
2022-08-19T19:09:18.801Z,33.67
2022-08-19T19:14:03.536Z,34.50
2022-08-19T19:18:46.992Z,34.97
2022-08-19T19:23:32.307Z,32.93
2022-08-19T19:28:16.043Z,31.13
2022-08-19T19:33:01.606Z,30.13
2022-08-19T19:37:45.431Z,28.07
2022-08-19T19:42:30.644Z,32.07
2022-08-19T19:47:15.223Z,30.33
2022-08-19T19:51:59.036Z,30.60
2022-08-19T19:56:45.392Z,29.80
2022-08-19T20:01:30.850Z,28.70
2022-08-19T20:06:16.859Z,29.50
2022-08-19T20:11:02.998Z,28.50
2022-08-19T20:15:46.726Z,27.80
2022-08-19T20:20:32.296Z,34.43
2022-08-19T20:25:16.814Z,28.80
2022-08-19T20:30:01.459Z,27.07
2022-08-19T20:34:49.166Z,25.37
2022-08-19T20:39:34.170Z,26.33
2022-08-19T20:44:17.783Z,24.43
2022-08-19T20:49:02.145Z,24.47
2022-08-19T20:53:59.548Z,23.40
2022-08-19T20:58:46.863Z,24.53
2022-08-19T21:03:42.998Z,26.87
2022-08-19T21:08:28.318Z,25.00
2022-08-19T21:13:12.606Z,23.20
2022-08-19T21:17:57.640Z,26.70
2022-08-19T21:22:41.273Z,24.43
2022-08-19T21:27:25.618Z,25.57
2022-08-19T21:32:14.384Z,26.47
2022-08-19T21:36:59.585Z,24.90
2022-08-19T21:41:43.783Z,24.23
2022-08-19T21:46:28.459Z,21.53
2022-08-19T21:51:11.932Z,25.23
2022-08-19T21:55:56.891Z,25.03
2022-08-19T22:00:40.482Z,26.70
2022-08-19T22:05:24.944Z,24.67
2022-08-19T22:10:09.738Z,27.93
2022-08-19T22:14:55.844Z,25.83
2022-08-19T22:19:39.338Z,27.93
2022-08-19T22:24:22.809Z,28.00
2022-08-19T22:29:06.635Z,29.30
2022-08-19T22:33:52.790Z,28.10
2022-08-19T22:38:36.542Z,30.10
2022-08-19T22:43:24.054Z,27.60
2022-08-19T22:48:09.568Z,28.03
2022-08-19T22:52:58.985Z,31.03
2022-08-19T22:57:43.621Z,27.13
2022-08-19T23:02:31.392Z,29.07
2022-08-19T23:07:14.989Z,31.90
2022-08-19T23:12:00.686Z,26.30
2022-08-19T23:16:50.711Z,26.97
2022-08-19T23:21:34.989Z,25.90
2022-08-19T23:26:18.388Z,29.20
2022-08-19T23:31:03.880Z,27.97
2022-08-19T23:35:47.352Z,26.03
2022-08-19T23:40:31.203Z,28.17
2022-08-19T23:45:15.347Z,29.00
2022-08-19T23:50:10.467Z,27.80
2022-08-19T23:54:53.945Z,30.77
2022-08-19T23:59:45.344Z,31.20
